createdAt,value
2023-03-27T00:01:04.323Z,42.86
2023-03-27T00:03:58.566Z,43.00
2023-03-27T00:06:54.995Z,42.98
2023-03-27T00:09:48.781Z,42.99
2023-03-27T00:12:44.183Z,43.02
2023-03-27T00:15:40.266Z,42.91
2023-03-27T00:18:34.373Z,43.02
2023-03-27T00:21:13.357Z,43.09
2023-03-27T00:24:08.806Z,43.06
2023-03-27T00:27:02.392Z,42.97
2023-03-27T00:29:56.196Z,42.98
2023-03-27T00:32:50.079Z,42.96
2023-03-27T00:35:48.578Z,43.05
2023-03-27T00:38:43.697Z,43.02
2023-03-27T00:41:37.302Z,43.06
2023-03-27T00:44:34.193Z,42.89
2023-03-27T00:47:36.729Z,42.93
2023-03-27T00:50:38.227Z,42.97
2023-03-27T00:53:33.439Z,43.04
2023-03-27T00:56:27.847Z,42.95
2023-03-27T00:59:25.358Z,43.05
2023-03-27T01:02:19.872Z,43.14
2023-03-27T01:05:14.008Z,43.11
2023-03-27T01:08:08.800Z,43.10
2023-03-27T01:11:16.379Z,43.06
2023-03-27T01:14:22.201Z,42.92
2023-03-27T01:17:35.966Z,42.98
2023-03-27T01:21:08.090Z,42.99
2023-03-27T01:24:49.730Z,43.02
2023-03-27T01:28:15.163Z,43.19
2023-03-27T01:31:26.506Z,43.12
2023-03-27T01:35:01.075Z,43.11
2023-03-27T01:38:51.489Z,43.05
2023-03-27T01:41:54.575Z,42.89
2023-03-27T01:44:54.854Z,42.92
2023-03-27T01:47:56.461Z,43.06
2023-03-27T01:50:56.878Z,42.98
2023-03-27T01:53:54.633Z,42.91
2023-03-27T01:56:53.548Z,43.00
2023-03-27T01:59:54.587Z,42.93
2023-03-27T02:02:53.220Z,43.00
2023-03-27T02:05:50.525Z,42.99
2023-03-27T02:08:50.259Z,43.00
2023-03-27T02:11:51.153Z,42.91
2023-03-27T02:14:53.521Z,42.93
2023-03-27T02:17:57.477Z,43.02
2023-03-27T02:20:49.463Z,42.93
2023-03-27T02:23:44.772Z,42.98
2023-03-27T02:26:38.937Z,43.01
2023-03-27T02:29:49.013Z,43.01
2023-03-27T02:32:50.274Z,43.00
2023-03-27T02:36:09.945Z,43.10
2023-03-27T02:39:13.954Z,42.97
2023-03-27T02:42:13.926Z,43.01
2023-03-27T02:45:17.037Z,42.98
2023-03-27T02:48:16.238Z,43.05
2023-03-27T02:51:15.031Z,42.99
2023-03-27T02:54:12.950Z,42.94
2023-03-27T02:57:10.539Z,42.87
2023-03-27T03:00:22.913Z,42.99
2023-03-27T03:03:18.031Z,43.01
2023-03-27T03:06:14.309Z,43.00
2023-03-27T03:09:08.102Z,43.07
2023-03-27T03:12:01.952Z,42.99
2023-03-27T03:14:56.520Z,42.98
2023-03-27T03:17:50.737Z,42.99
2023-03-27T03:20:44.630Z,42.90
2023-03-27T03:23:39.182Z,42.90
2023-03-27T03:26:32.916Z,42.89
2023-03-27T03:29:35.487Z,42.58
2023-03-27T03:32:30.284Z,42.65
2023-03-27T03:35:25.841Z,42.60
2023-03-27T03:38:25.070Z,42.54
2023-03-27T03:41:18.683Z,42.37
2023-03-27T03:44:12.523Z,42.51
2023-03-27T03:47:06.568Z,42.30
2023-03-27T03:49:59.972Z,42.22
2023-03-27T03:52:53.587Z,42.35
2023-03-27T03:55:50.824Z,42.46
2023-03-27T03:59:18.046Z,42.25
2023-03-27T04:02:12.436Z,42.18
2023-03-27T04:05:08.936Z,42.43
2023-03-27T04:08:03.619Z,42.33
2023-03-27T04:10:57.463Z,42.24
2023-03-27T04:13:51.379Z,42.27
2023-03-27T04:16:44.906Z,42.29
2023-03-27T04:19:38.432Z,42.30
2023-03-27T04:22:37.787Z,42.31
2023-03-27T04:25:32.142Z,42.06
2023-03-27T04:28:16.273Z,42.09
2023-03-27T04:31:11.507Z,41.96
2023-03-27T04:34:05.107Z,42.00
2023-03-27T04:36:58.677Z,41.99
2023-03-27T04:39:52.472Z,42.10
2023-03-27T04:42:46.489Z,41.98
2023-03-27T04:45:40.254Z,41.95
2023-03-27T04:48:33.824Z,42.08
2023-03-27T04:51:27.443Z,41.88
2023-03-27T04:54:22.727Z,42.13
2023-03-27T04:57:18.980Z,42.01
2023-03-27T05:00:17.089Z,43.62
2023-03-27T05:03:10.866Z,45.70
2023-03-27T05:05:44.502Z,49.89
2023-03-27T05:08:38.094Z,46.40
2023-03-27T05:11:31.702Z,42.66
2023-03-27T05:14:26.208Z,41.14
2023-03-27T05:17:20.171Z,41.09
2023-03-27T05:20:17.140Z,41.10
2023-03-27T05:23:11.016Z,41.12
2023-03-27T05:26:04.747Z,40.97
2023-03-27T05:28:59.227Z,40.89
2023-03-27T05:31:52.823Z,40.89
2023-03-27T05:34:50.647Z,41.09
2023-03-27T05:37:48.831Z,41.02
2023-03-27T05:40:43.007Z,41.15
2023-03-27T05:43:36.901Z,40.96
2023-03-27T05:46:30.809Z,40.99
2023-03-27T05:49:24.490Z,40.88
2023-03-27T05:52:18.056Z,40.84
2023-03-27T05:55:14.001Z,41.22
2023-03-27T05:58:10.009Z,41.03
2023-03-27T06:01:04.698Z,41.53
2023-03-27T06:03:58.389Z,41.63
2023-03-27T06:06:52.032Z,41.13
2023-03-27T06:09:49.220Z,41.16
2023-03-27T06:12:43.307Z,41.21
2023-03-27T06:15:38.859Z,41.38
2023-03-27T06:18:32.856Z,41.42
2023-03-27T06:21:26.532Z,41.60
2023-03-27T06:24:20.088Z,41.78
2023-03-27T06:27:13.660Z,41.95
2023-03-27T06:30:09.432Z,41.93
2023-03-27T06:33:03.582Z,41.89
2023-03-27T06:36:00.589Z,42.10
2023-03-27T06:38:56.371Z,41.80
2023-03-27T06:41:50.669Z,42.43
2023-03-27T06:44:44.289Z,47.69
2023-03-27T06:47:44.791Z,52.27
2023-03-27T06:50:46.665Z,55.54
2023-03-27T06:53:41.266Z,54.09
2023-03-27T06:56:34.845Z,53.83
2023-03-27T06:59:28.564Z,53.52
2023-03-27T07:02:22.248Z,49.41
2023-03-27T07:05:16.633Z,46.12
2023-03-27T07:08:21.806Z,45.39
2023-03-27T07:11:17.520Z,49.82
2023-03-27T07:14:12.262Z,46.59
2023-03-27T07:17:08.775Z,44.63
2023-03-27T07:20:04.013Z,43.25
2023-03-27T07:22:57.866Z,43.22
2023-03-27T07:25:52.126Z,43.81
2023-03-27T07:28:46.122Z,42.65
2023-03-27T07:31:55.814Z,42.49
2023-03-27T07:34:51.524Z,43.67
2023-03-27T07:37:45.086Z,43.49
2023-03-27T07:40:40.606Z,42.86
2023-03-27T07:43:35.307Z,43.16
2023-03-27T07:46:29.241Z,43.82
2023-03-27T07:49:39.381Z,43.09
2023-03-27T07:52:36.686Z,44.05
2023-03-27T07:55:31.276Z,44.27
2023-03-27T07:58:25.202Z,43.18
2023-03-27T08:01:19.346Z,43.52
2023-03-27T08:04:13.445Z,42.84
2023-03-27T08:07:07.219Z,43.31
2023-03-27T08:10:01.093Z,46.82
2023-03-27T08:12:54.701Z,48.00
2023-03-27T08:15:48.405Z,48.65
2023-03-27T08:18:42.614Z,48.28
2023-03-27T08:21:36.702Z,46.88
2023-03-27T08:24:30.445Z,43.84
2023-03-27T08:27:24.162Z,42.42
2023-03-27T08:30:20.292Z,41.76
2023-03-27T08:33:14.027Z,43.66
2023-03-27T08:36:10.640Z,42.99
2023-03-27T08:39:04.923Z,42.91
2023-03-27T08:42:01.470Z,43.72
2023-03-27T08:44:57.725Z,43.25
2023-03-27T08:47:59.236Z,43.18
2023-03-27T08:50:57.870Z,42.73
2023-03-27T08:53:58.149Z,43.05
2023-03-27T08:56:52.470Z,41.59
2023-03-27T08:59:46.444Z,41.56
2023-03-27T09:02:49.381Z,41.38
2023-03-27T09:05:48.440Z,41.45
2023-03-27T09:08:53.927Z,40.86
2023-03-27T09:12:02.206Z,41.02
2023-03-27T09:15:01.014Z,40.95
2023-03-27T09:18:01.618Z,40.58
2023-03-27T09:20:58.269Z,40.80
2023-03-27T09:23:54.157Z,40.42
2023-03-27T09:26:57.863Z,40.55
2023-03-27T09:30:18.622Z,40.50
2023-03-27T09:33:14.752Z,39.52
2023-03-27T09:36:09.431Z,39.93
2023-03-27T09:39:08.920Z,39.28
2023-03-27T09:42:16.587Z,39.32
2023-03-27T09:45:14.340Z,38.88
2023-03-27T09:48:15.258Z,38.75
2023-03-27T09:51:39.507Z,39.07
2023-03-27T09:54:56.059Z,39.56
2023-03-27T09:57:50.189Z,38.63
2023-03-27T10:00:44.088Z,38.78
2023-03-27T10:03:44.088Z,38.64
2023-03-27T10:06:47.408Z,38.31
2023-03-27T10:09:41.809Z,38.34
2023-03-27T10:12:36.459Z,37.88
2023-03-27T10:15:36.387Z,37.93
2023-03-27T10:18:32.756Z,38.23
2023-03-27T10:21:33.340Z,38.14
2023-03-27T10:24:35.394Z,38.01
2023-03-27T10:27:32.389Z,37.48
2023-03-27T10:30:35.416Z,37.53
2023-03-27T10:33:37.533Z,37.86
2023-03-27T10:36:35.364Z,37.53
2023-03-27T10:39:34.723Z,37.30
2023-03-27T10:42:32.460Z,36.72
2023-03-27T10:45:26.983Z,36.82
2023-03-27T10:48:47.292Z,36.71
2023-03-27T10:51:50.526Z,36.64
2023-03-27T10:54:54.594Z,36.34
2023-03-27T10:57:49.811Z,36.71
2023-03-27T11:00:49.930Z,37.21
2023-03-27T11:03:52.801Z,36.89
2023-03-27T11:06:52.687Z,36.61
2023-03-27T11:09:58.678Z,36.22
2023-03-27T11:13:04.901Z,36.21
2023-03-27T11:16:11.821Z,35.82
2023-03-27T11:19:29.401Z,35.87
2023-03-27T11:22:30.962Z,35.36
2023-03-27T11:25:36.735Z,35.06
2023-03-27T11:28:42.906Z,35.06
2023-03-27T11:31:46.050Z,35.00
2023-03-27T11:34:43.400Z,34.38
2023-03-27T11:37:46.535Z,35.27
2023-03-27T11:40:43.816Z,35.15
2023-03-27T11:43:41.493Z,35.79
2023-03-27T11:46:44.934Z,34.88
2023-03-27T11:49:56.289Z,34.23
2023-03-27T11:53:08.121Z,36.11
2023-03-27T11:56:20.979Z,35.61
2023-03-27T12:00:16.266Z,37.87
2023-03-27T12:03:37.112Z,37.90
2023-03-27T12:06:36.407Z,37.71
2023-03-27T12:09:47.130Z,37.42
2023-03-27T12:13:08.495Z,36.98
2023-03-27T12:16:20.227Z,36.88
2023-03-27T12:19:40.266Z,36.32
2023-03-27T12:22:45.793Z,35.97
2023-03-27T12:25:59.638Z,35.53
2023-03-27T12:29:23.619Z,34.98
2023-03-27T12:32:56.318Z,34.84
2023-03-27T12:35:57.632Z,34.30
2023-03-27T12:38:52.981Z,34.34
2023-03-27T12:41:49.843Z,33.49
2023-03-27T12:45:15.336Z,33.57
2023-03-27T12:48:20.860Z,33.65
2023-03-27T12:51:19.834Z,33.55
2023-03-27T12:54:31.627Z,33.81
2023-03-27T12:57:26.038Z,33.27
2023-03-27T13:00:28.923Z,33.63
2023-03-27T13:03:51.029Z,33.14
2023-03-27T13:06:55.937Z,33.41
2023-03-27T13:10:26.074Z,32.87
2023-03-27T13:14:22.268Z,32.50
2023-03-27T13:17:43.277Z,32.65
2023-03-27T13:20:48.939Z,32.72
2023-03-27T13:24:01.850Z,31.91
2023-03-27T13:27:16.436Z,31.98
2023-03-27T13:30:43.018Z,31.96
2023-03-27T13:34:08.675Z,32.05
2023-03-27T13:37:53.655Z,32.21
2023-03-27T13:40:49.738Z,31.87
2023-03-27T13:43:43.697Z,31.76
2023-03-27T13:46:39.365Z,31.61
2023-03-27T13:50:14.680Z,31.98
2023-03-27T13:53:38.477Z,31.27
2023-03-27T13:56:50.768Z,31.25
2023-03-27T14:00:41.438Z,30.92
2023-03-27T14:04:14.322Z,31.11
2023-03-27T14:08:07.794Z,30.87
2023-03-27T14:11:17.329Z,31.07
2023-03-27T14:14:43.187Z,31.04
2023-03-27T14:17:54.611Z,31.19
2023-03-27T14:20:52.289Z,31.12
2023-03-27T14:23:51.811Z,30.97
2023-03-27T14:26:46.795Z,30.94
2023-03-27T14:29:40.769Z,31.02
2023-03-27T14:32:35.634Z,31.00
2023-03-27T14:35:42.392Z,30.63
2023-03-27T14:38:38.471Z,30.65
2023-03-27T14:41:32.841Z,30.50
2023-03-27T14:44:28.594Z,30.55
2023-03-27T14:47:29.428Z,30.40
2023-03-27T14:50:25.634Z,30.32
2023-03-27T14:53:26.614Z,30.58
2023-03-27T14:56:29.078Z,30.17
2023-03-27T14:59:27.833Z,29.91
2023-03-27T15:02:28.904Z,30.34
2023-03-27T15:05:24.525Z,30.34
2023-03-27T15:08:23.481Z,31.84
2023-03-27T15:11:23.398Z,30.70
2023-03-27T15:14:26.454Z,30.95
2023-03-27T15:17:21.565Z,30.78
2023-03-27T15:20:20.921Z,30.67
2023-03-27T15:23:31.213Z,30.38
2023-03-27T15:26:31.513Z,30.51
2023-03-27T15:29:32.451Z,30.75
2023-03-27T15:32:32.341Z,30.16
2023-03-27T15:35:34.403Z,30.11
2023-03-27T15:38:33.393Z,30.24
2023-03-27T15:41:53.741Z,30.32
2023-03-27T15:44:47.662Z,29.70
2023-03-27T15:47:42.238Z,29.68
2023-03-27T15:50:38.018Z,29.45
2023-03-27T15:53:43.386Z,29.36
2023-03-27T15:56:43.827Z,29.17
2023-03-27T15:59:37.629Z,29.22
2023-03-27T16:02:48.055Z,29.13
2023-03-27T16:05:44.192Z,29.03
2023-03-27T16:08:41.156Z,29.16
2023-03-27T16:11:45.856Z,29.10
2023-03-27T16:14:53.398Z,28.76
2023-03-27T16:17:51.995Z,28.71
2023-03-27T16:20:46.534Z,29.20
2023-03-27T16:23:41.875Z,29.10
2023-03-27T16:26:36.122Z,28.75
2023-03-27T16:29:30.036Z,28.62
2023-03-27T16:32:25.212Z,28.65
2023-03-27T16:35:19.387Z,28.81
2023-03-27T16:38:43.865Z,28.54
2023-03-27T16:41:38.208Z,28.60
2023-03-27T16:44:32.188Z,28.55
2023-03-27T16:47:26.052Z,28.53
2023-03-27T16:50:25.104Z,28.25
2023-03-27T16:53:19.298Z,28.42
2023-03-27T16:56:14.285Z,28.14
2023-03-27T16:59:08.669Z,28.67
2023-03-27T17:02:02.856Z,28.89
2023-03-27T17:04:56.581Z,28.98
2023-03-27T17:07:50.724Z,28.99
2023-03-27T17:10:46.621Z,29.26
2023-03-27T17:13:43.693Z,29.81
2023-03-27T17:16:38.356Z,29.81
2023-03-27T17:19:32.227Z,29.85
2023-03-27T17:22:29.658Z,31.04
2023-03-27T17:25:24.523Z,29.87
2023-03-27T17:28:18.593Z,29.51
2023-03-27T17:31:12.864Z,30.16
2023-03-27T17:34:07.866Z,31.23
2023-03-27T17:37:01.863Z,30.08
2023-03-27T17:39:56.036Z,30.27
2023-03-27T17:42:49.770Z,30.55
2023-03-27T17:45:45.865Z,31.06
2023-03-27T17:48:39.735Z,30.52
2023-03-27T17:51:34.169Z,29.93
2023-03-27T17:54:27.832Z,30.49
2023-03-27T17:57:22.853Z,30.29
2023-03-27T18:00:20.341Z,30.62
2023-03-27T18:03:13.570Z,30.29
2023-03-27T18:06:09.499Z,30.26
2023-03-27T18:09:03.411Z,29.99
2023-03-27T18:11:57.544Z,30.20
2023-03-27T18:14:51.631Z,30.63
2023-03-27T18:17:45.852Z,31.92
2023-03-27T18:20:39.666Z,30.92
2023-03-27T18:23:34.851Z,30.71
2023-03-27T18:26:29.969Z,30.99
2023-03-27T18:29:24.592Z,30.55
2023-03-27T18:32:18.807Z,30.89
2023-03-27T18:35:16.117Z,31.08
2023-03-27T18:38:11.675Z,31.47
2023-03-27T18:41:06.942Z,30.86
2023-03-27T18:44:00.721Z,30.74
2023-03-27T18:46:55.246Z,31.03
2023-03-27T18:49:49.618Z,30.86
2023-03-27T18:52:44.185Z,31.00
2023-03-27T18:55:38.663Z,30.97
2023-03-27T18:58:33.981Z,30.28
2023-03-27T19:01:27.970Z,30.33
2023-03-27T19:04:22.460Z,30.44
2023-03-27T19:07:17.430Z,30.17
2023-03-27T19:10:13.989Z,29.84
2023-03-27T19:13:08.935Z,29.08
2023-03-27T19:16:15.231Z,29.91
2023-03-27T19:19:10.778Z,30.79
2023-03-27T19:22:08.642Z,32.11
2023-03-27T19:25:00.903Z,33.12
2023-03-27T19:27:54.665Z,32.77
2023-03-27T19:30:48.831Z,32.42
2023-03-27T19:33:43.110Z,32.39
2023-03-27T19:36:37.409Z,32.93
2023-03-27T19:39:31.472Z,32.58
2023-03-27T19:42:26.318Z,32.67
2023-03-27T19:45:20.921Z,32.69
2023-03-27T19:48:15.247Z,32.76
2023-03-27T19:51:09.796Z,32.75
2023-03-27T19:54:03.569Z,33.35
2023-03-27T19:56:58.021Z,33.34
2023-03-27T19:59:54.619Z,33.37
2023-03-27T20:02:49.402Z,33.42
2023-03-27T20:05:47.754Z,33.96
2023-03-27T20:08:42.364Z,32.60
2023-03-27T20:11:37.045Z,32.07
2023-03-27T20:14:31.097Z,32.12
2023-03-27T20:17:28.515Z,32.17
2023-03-27T20:20:23.327Z,32.10
2023-03-27T20:23:17.524Z,32.15
2023-03-27T20:26:11.996Z,32.27
2023-03-27T20:29:06.085Z,32.83
2023-03-27T20:31:59.738Z,34.43
2023-03-27T20:34:55.234Z,35.09
2023-03-27T20:37:48.839Z,35.03
2023-03-27T20:43:44.931Z,35.30
2023-03-27T20:46:38.821Z,34.93
2023-03-27T20:49:40.806Z,34.78
2023-03-27T20:52:36.713Z,34.76
2023-03-27T20:55:34.645Z,34.55
2023-03-27T20:58:35.677Z,34.40
2023-03-27T21:01:29.314Z,34.50
2023-03-27T21:04:25.536Z,34.36
2023-03-27T21:07:19.379Z,34.35
2023-03-27T21:10:14.199Z,34.36
2023-03-27T21:13:08.394Z,34.28
2023-03-27T21:16:02.729Z,34.34
2023-03-27T21:18:56.827Z,34.37
2023-03-27T21:21:50.512Z,34.69
2023-03-27T21:24:44.337Z,34.50
2023-03-27T21:27:38.115Z,34.22
2023-03-27T21:30:46.628Z,34.33
2023-03-27T21:33:41.708Z,34.58
2023-03-27T21:36:35.489Z,34.40
2023-03-27T21:39:29.236Z,34.32
2023-03-27T21:42:22.828Z,34.48
2023-03-27T21:45:16.677Z,34.35
2023-03-27T21:48:11.189Z,34.56
2023-03-27T21:51:08.309Z,34.62
2023-03-27T21:54:01.906Z,34.48
2023-03-27T21:56:55.578Z,34.63
2023-03-27T21:59:49.181Z,34.59
2023-03-27T22:02:42.931Z,34.44
2023-03-27T22:05:39.576Z,34.52
2023-03-27T22:08:33.208Z,34.62
2023-03-27T22:11:26.811Z,34.55
2023-03-27T22:14:20.496Z,34.43
2023-03-27T22:17:14.256Z,34.46
2023-03-27T22:20:09.384Z,34.46
2023-03-27T22:23:03.105Z,34.37
2023-03-27T22:25:57.459Z,34.52
2023-03-27T22:28:52.567Z,34.63
2023-03-27T22:31:46.322Z,34.74
2023-03-27T22:34:39.862Z,34.92
2023-03-27T22:37:36.039Z,34.95
2023-03-27T22:40:29.804Z,34.91
2023-03-27T22:43:23.665Z,34.96
2023-03-27T22:46:20.808Z,35.14
2023-03-27T22:49:14.438Z,34.97
2023-03-27T22:52:08.604Z,34.98
2023-03-27T22:55:02.437Z,34.94
2023-03-27T22:57:41.347Z,34.91
2023-03-27T23:00:34.997Z,34.89
2023-03-27T23:03:29.413Z,34.88
2023-03-27T23:06:24.805Z,34.88
2023-03-27T23:09:18.370Z,34.94
2023-03-27T23:12:11.982Z,34.98
2023-03-27T23:15:05.788Z,35.09
2023-03-27T23:17:59.540Z,35.05
2023-03-27T23:20:58.194Z,35.09
2023-03-27T23:23:51.892Z,35.11
2023-03-27T23:26:45.440Z,34.93
2023-03-27T23:29:39.261Z,35.05
2023-03-27T23:32:37.535Z,35.21
2023-03-27T23:35:22.004Z,35.33
2023-03-27T23:38:12.567Z,35.34
2023-03-27T23:41:10.543Z,35.18
2023-03-27T23:44:04.102Z,35.13
2023-03-27T23:46:57.752Z,35.19
2023-03-27T23:49:51.689Z,35.11
2023-03-27T23:52:45.262Z,35.16
2023-03-27T23:55:39.473Z,35.08
2023-03-27T23:58:33.570Z,35.33
